Avenal, California
Current Conditions -  °F | °C
As of 12:56 PM on Wednesday 26 Nov 2014 (Local Time) from KNLC Reporting Station
Haze Haze  
Wind Chill: 65°   Ceiling: Unl
Heat Index: 65°   Visibility: 6mi
Dew Point: 45°   Wind: 6mph
Humidity: 48%   Direction: 130°SE
Pressure: 30.26"   Gusts: NA
Location:  36°N, 120.13°W
Report Text: KNLC 262056Z 13005KT 6SM HZ CLR 18/07 A3026 RMK AO2 SLP248 RH/48 T01830072 56033 $
Loading
Personal Weather Stations






























Interactive Weather Map New forecast layout! Learn more

10-Day Weather Forecast

Advertisements
Track Severe Weather on mobile